createdAt,value
2019-02-21T00:00:31.082Z,0.00
2019-02-21T00:01:31.142Z,0.00
2019-02-21T00:02:31.077Z,0.00
2019-02-21T00:03:31.178Z,0.00
2019-02-21T00:04:31.038Z,0.00
2019-02-21T00:05:31.067Z,0.00
2019-02-21T00:06:31.013Z,0.00
2019-02-21T00:07:31.107Z,0.00
2019-02-21T00:08:30.996Z,0.00
2019-02-21T00:09:31.097Z,0.00
2019-02-21T00:10:30.971Z,0.00
2019-02-21T00:11:31.007Z,0.00
2019-02-21T00:12:30.967Z,0.00
2019-02-21T00:13:31.022Z,0.00
2019-02-21T00:14:30.926Z,0.00
2019-02-21T00:15:30.930Z,0.00
2019-02-21T00:16:30.906Z,0.00
2019-02-21T00:17:30.972Z,0.00
2019-02-21T00:18:30.884Z,0.00
2019-02-21T00:19:30.959Z,0.00
2019-02-21T00:20:30.859Z,0.00
2019-02-21T00:21:30.869Z,0.00
2019-02-21T00:22:30.853Z,0.00
2019-02-21T00:23:30.886Z,0.00
2019-02-21T00:24:30.818Z,0.00
2019-02-21T00:25:30.898Z,0.00
2019-02-21T00:26:30.795Z,0.00
2019-02-21T00:27:30.838Z,0.00
2019-02-21T00:28:30.774Z,0.00
2019-02-21T00:29:30.825Z,0.00
2019-02-21T00:30:35.261Z,0.00
2019-02-21T00:31:30.839Z,0.00
2019-02-21T00:32:30.731Z,0.00
2019-02-21T00:33:30.774Z,0.00
2019-02-21T00:34:30.709Z,0.00
2019-02-21T00:35:30.767Z,0.00
2019-02-21T00:36:30.690Z,0.00
2019-02-21T00:37:30.775Z,0.00
2019-02-21T00:38:30.681Z,0.00
2019-02-21T00:39:37.670Z,0.00
2019-02-21T00:40:30.645Z,0.00
2019-02-21T00:41:45.631Z,0.00
2019-02-21T00:42:30.621Z,0.00
2019-02-21T00:43:30.640Z,0.00
2019-02-21T00:44:30.600Z,0.00
2019-02-21T00:45:30.625Z,0.00
2019-02-21T00:46:30.582Z,0.00
2019-02-21T00:47:30.640Z,0.00
2019-02-21T00:48:30.576Z,0.00
2019-02-21T00:49:30.671Z,0.00
2019-02-21T00:50:30.535Z,0.00
2019-02-21T00:51:30.564Z,0.00
2019-02-21T00:52:31.470Z,0.00
2019-02-21T00:53:30.612Z,0.00
2019-02-21T00:54:30.491Z,0.00
2019-02-21T00:55:30.592Z,0.00
2019-02-21T00:56:30.469Z,0.00
2019-02-21T00:57:30.507Z,0.00
2019-02-21T00:58:30.459Z,0.00
2019-02-21T00:59:30.536Z,0.00
2019-02-21T01:00:30.462Z,0.00
2019-02-21T01:01:30.422Z,0.00
2019-02-21T01:02:30.403Z,0.00
2019-02-21T01:03:30.470Z,0.00
2019-02-21T01:04:30.382Z,0.00
2019-02-21T01:05:30.480Z,0.00
2019-02-21T01:06:30.362Z,0.00
2019-02-21T01:07:30.386Z,0.00
2019-02-21T01:08:30.351Z,0.00
2019-02-21T01:09:30.383Z,0.00
2019-02-21T01:10:30.323Z,0.00
2019-02-21T01:11:30.401Z,0.00
2019-02-21T01:12:30.294Z,0.00
2019-02-21T01:13:30.337Z,0.00
2019-02-21T01:14:30.272Z,0.00
2019-02-21T01:15:30.339Z,0.00
2019-02-21T01:16:30.249Z,0.00
2019-02-21T01:17:30.336Z,0.00
2019-02-21T01:18:30.250Z,0.00
2019-02-21T01:19:30.252Z,0.00
2019-02-21T01:20:30.206Z,0.00
2019-02-21T01:21:30.272Z,0.00
2019-02-21T01:22:30.187Z,0.00
2019-02-21T01:23:30.296Z,0.00
2019-02-21T01:24:30.165Z,0.00
2019-02-21T01:25:30.192Z,0.00
2019-02-21T01:26:30.142Z,0.00
2019-02-21T01:27:31.228Z,0.00
2019-02-21T01:28:30.135Z,0.00
2019-02-21T01:29:31.145Z,0.00
2019-02-21T01:30:30.096Z,0.00
2019-02-21T01:31:30.135Z,0.00
2019-02-21T01:32:30.077Z,0.00
2019-02-21T01:33:30.184Z,0.00
2019-02-21T01:34:30.054Z,0.00
2019-02-21T01:35:30.157Z,0.00
2019-02-21T01:36:30.033Z,0.00
2019-02-21T01:37:30.065Z,0.00
2019-02-21T01:38:30.023Z,0.00
2019-02-21T01:39:30.081Z,0.00
2019-02-21T01:40:29.993Z,0.00
2019-02-21T01:41:30.104Z,0.00
2019-02-21T01:42:29.965Z,0.00
2019-02-21T01:43:30.033Z,0.00
2019-02-21T01:44:29.946Z,0.00
2019-02-21T01:45:30.018Z,0.00
2019-02-21T01:46:29.935Z,0.00
2019-02-21T01:47:29.947Z,0.00
2019-02-21T01:48:29.944Z,0.00
2019-02-21T01:49:29.951Z,0.00
2019-02-21T01:50:31.640Z,0.00
2019-02-21T01:51:29.960Z,0.00
2019-02-21T01:52:29.860Z,0.00
2019-02-21T01:53:29.877Z,0.00
2019-02-21T01:54:29.852Z,0.00
2019-02-21T01:55:29.883Z,0.00
2019-02-21T01:56:29.814Z,0.00
2019-02-21T01:57:29.974Z,0.00
2019-02-21T01:58:29.796Z,0.00
2019-02-21T01:59:29.831Z,0.00
2019-02-21T02:00:29.770Z,0.00
2019-02-21T02:01:29.830Z,0.00
2019-02-21T02:02:29.748Z,0.00
2019-02-21T02:03:29.849Z,0.00
2019-02-21T02:04:29.747Z,0.00
2019-02-21T02:05:29.749Z,0.00
2019-02-21T02:06:29.707Z,0.00
2019-02-21T02:07:29.699Z,0.00
2019-02-21T02:08:29.682Z,0.00
2019-02-21T02:09:29.801Z,0.00
2019-02-21T02:10:29.666Z,0.00
2019-02-21T02:11:29.721Z,0.00
2019-02-21T02:12:29.636Z,0.00
2019-02-21T02:13:30.634Z,0.00
2019-02-21T02:14:29.633Z,0.00
2019-02-21T02:15:30.622Z,0.00
2019-02-21T02:16:29.601Z,0.00
2019-02-21T02:17:29.627Z,0.00
2019-02-21T02:18:29.571Z,0.00
2019-02-21T02:19:29.668Z,0.00
2019-02-21T02:20:29.551Z,0.00
2019-02-21T02:21:29.660Z,0.00
2019-02-21T02:22:29.528Z,0.00
2019-02-21T02:23:29.564Z,0.00
2019-02-21T02:24:29.524Z,0.00
2019-02-21T02:25:29.579Z,0.00
2019-02-21T02:26:29.488Z,0.00
2019-02-21T02:27:29.592Z,0.00
2019-02-21T02:28:29.500Z,0.00
2019-02-21T02:29:29.527Z,0.00
2019-02-21T02:30:29.441Z,0.00
2019-02-21T02:31:29.515Z,0.00
2019-02-21T02:32:29.429Z,0.00
2019-02-21T02:33:29.430Z,0.00
2019-02-21T02:34:29.422Z,0.00
2019-02-21T02:35:29.446Z,0.00
2019-02-21T02:36:29.374Z,0.00
2019-02-21T02:37:29.467Z,0.00
2019-02-21T02:38:29.355Z,0.00
2019-02-21T02:39:29.388Z,0.00
2019-02-21T02:40:29.335Z,0.00
2019-02-21T02:41:29.377Z,0.00
2019-02-21T02:42:29.311Z,0.00
2019-02-21T02:43:29.392Z,0.00
2019-02-21T02:44:29.309Z,0.00
2019-02-21T02:45:29.302Z,0.00
2019-02-21T02:46:29.267Z,0.00
2019-02-21T02:47:29.315Z,0.00
2019-02-21T02:48:29.245Z,0.00
2019-02-21T02:49:29.359Z,0.00
2019-02-21T02:50:29.221Z,0.00
2019-02-21T02:51:29.242Z,0.00
2019-02-21T02:52:29.200Z,0.00
2019-02-21T02:53:29.260Z,0.00
2019-02-21T02:54:29.179Z,0.00
2019-02-21T02:55:29.295Z,0.00
2019-02-21T02:56:29.182Z,0.00
2019-02-21T02:57:29.183Z,0.00
2019-02-21T02:58:29.140Z,0.00
2019-02-21T02:59:40.391Z,0.00
2019-02-21T03:00:30.130Z,0.00
2019-02-21T03:01:34.803Z,0.00
2019-02-21T03:02:30.089Z,0.00
2019-02-21T03:03:29.120Z,0.00
2019-02-21T03:04:29.211Z,0.00
2019-02-21T03:05:29.159Z,0.00
2019-02-21T03:06:29.047Z,0.00
2019-02-21T03:07:29.145Z,0.00
2019-02-21T03:08:29.027Z,0.00
2019-02-21T03:09:29.060Z,0.00
2019-02-21T03:10:29.019Z,0.00
2019-02-21T03:11:29.071Z,0.00
2019-02-21T03:12:28.994Z,0.00
2019-02-21T03:13:29.083Z,0.00
2019-02-21T03:14:28.963Z,0.00
2019-02-21T03:15:29.021Z,0.00
2019-02-21T03:16:28.941Z,0.00
2019-02-21T03:17:29.010Z,0.00
2019-02-21T03:18:28.921Z,0.00
2019-02-21T03:19:28.921Z,0.00
2019-02-21T03:20:28.911Z,0.00
2019-02-21T03:21:28.939Z,0.00
2019-02-21T03:22:28.870Z,0.00
2019-02-21T03:23:28.951Z,0.00
2019-02-21T03:24:28.854Z,0.00
2019-02-21T03:25:28.891Z,0.00
2019-02-21T03:26:28.827Z,0.00
2019-02-21T03:27:28.875Z,0.00
2019-02-21T03:28:28.808Z,0.00
2019-02-21T03:29:28.885Z,0.00
2019-02-21T03:30:28.802Z,0.00
2019-02-21T03:31:28.801Z,0.00
2019-02-21T03:32:28.772Z,0.00
2019-02-21T03:33:28.826Z,0.00
2019-02-21T03:34:28.740Z,0.00
2019-02-21T03:35:28.851Z,0.00
2019-02-21T03:36:28.733Z,0.00
2019-02-21T03:37:28.734Z,0.00
2019-02-21T03:38:28.710Z,0.00
2019-02-21T03:39:28.751Z,0.00
2019-02-21T03:40:28.681Z,0.00
2019-02-21T03:41:30.700Z,0.00
2019-02-21T03:42:28.663Z,0.00
2019-02-21T03:43:30.654Z,0.00
2019-02-21T03:44:28.631Z,0.00
2019-02-21T03:45:28.694Z,0.00
2019-02-21T03:46:28.627Z,0.00
2019-02-21T03:47:28.703Z,0.00
2019-02-21T03:48:28.591Z,0.00
2019-02-21T03:49:28.632Z,0.00
2019-02-21T03:50:28.567Z,0.00
2019-02-21T03:51:28.656Z,0.00
2019-02-21T03:52:28.549Z,0.00
2019-02-21T03:53:28.650Z,0.00
2019-02-21T03:54:28.532Z,0.00
2019-02-21T03:55:28.549Z,0.00
2019-02-21T03:56:28.515Z,0.00
2019-02-21T03:57:28.575Z,0.00
2019-02-21T03:58:28.481Z,0.00
2019-02-21T03:59:28.585Z,0.00
2019-02-21T04:00:28.462Z,0.00
2019-02-21T04:01:28.518Z,0.00
2019-02-21T04:02:28.433Z,0.00
2019-02-21T04:03:28.505Z,0.00
2019-02-21T04:04:28.414Z,0.00
2019-02-21T04:05:28.417Z,0.00
2019-02-21T04:06:28.408Z,0.00
2019-02-21T04:07:28.430Z,0.00
2019-02-21T04:08:28.368Z,0.00
2019-02-21T04:09:28.445Z,0.00
2019-02-21T04:10:28.345Z,0.00
2019-02-21T04:11:28.420Z,0.00
2019-02-21T04:12:28.334Z,0.00
2019-02-21T04:13:28.367Z,0.00
2019-02-21T04:14:28.314Z,0.00
2019-02-21T04:15:28.381Z,0.00
2019-02-21T04:16:28.299Z,0.00
2019-02-21T04:17:28.294Z,0.00
2019-02-21T04:18:28.264Z,0.00
2019-02-21T04:19:28.304Z,0.00
2019-02-21T04:20:28.239Z,0.00
2019-02-21T04:21:30.293Z,0.00
2019-02-21T04:22:28.217Z,0.00
2019-02-21T04:23:28.232Z,0.00
2019-02-21T04:24:28.211Z,0.00
2019-02-21T04:25:28.249Z,0.00
2019-02-21T04:26:28.190Z,0.00
2019-02-21T04:27:29.309Z,0.00
2019-02-21T04:28:28.168Z,0.00
2019-02-21T04:29:28.173Z,0.00
2019-02-21T04:30:28.133Z,0.00
2019-02-21T04:31:30.159Z,0.00
2019-02-21T04:32:28.118Z,0.00
2019-02-21T04:33:29.126Z,0.00
2019-02-21T04:34:28.086Z,0.00
2019-02-21T04:35:28.109Z,0.00
2019-02-21T04:36:28.083Z,0.00
2019-02-21T04:37:28.139Z,0.00
2019-02-21T04:38:28.039Z,0.00
2019-02-21T04:39:28.143Z,0.00
2019-02-21T04:40:28.018Z,0.00
2019-02-21T04:41:28.079Z,0.00
2019-02-21T04:42:28.003Z,0.00
2019-02-21T04:43:28.067Z,0.00
2019-02-21T04:44:27.973Z,0.00
2019-02-21T04:45:28.079Z,0.00
2019-02-21T04:46:27.987Z,0.00
2019-02-21T04:47:27.996Z,0.00
2019-02-21T04:48:27.942Z,0.00
2019-02-21T04:49:28.003Z,0.00
2019-02-21T04:50:27.909Z,0.00
2019-02-21T04:51:28.009Z,0.00
2019-02-21T04:52:27.892Z,0.00
2019-02-21T04:53:27.928Z,0.00
2019-02-21T04:54:27.869Z,0.00
2019-02-21T04:55:27.940Z,0.00
2019-02-21T04:56:27.874Z,0.00
2019-02-21T04:57:27.853Z,0.00
2019-02-21T04:58:27.824Z,0.00
2019-02-21T04:59:27.870Z,0.00
2019-02-21T05:00:27.803Z,0.00
2019-02-21T05:01:27.910Z,0.00
2019-02-21T05:02:29.517Z,0.00
2019-02-21T05:03:27.797Z,0.00
2019-02-21T05:04:27.760Z,0.00
2019-02-21T05:05:27.811Z,0.00
2019-02-21T05:06:27.772Z,0.00
2019-02-21T05:07:27.832Z,0.00
2019-02-21T05:08:27.714Z,0.00
2019-02-21T05:09:27.731Z,0.00
2019-02-21T05:10:27.696Z,0.00
2019-02-21T05:11:27.748Z,0.00
2019-02-21T05:12:27.687Z,0.00
2019-02-21T05:13:29.707Z,0.00
2019-02-21T05:14:27.653Z,0.00
2019-02-21T05:15:29.717Z,0.00
2019-02-21T05:16:27.626Z,0.00
2019-02-21T05:17:29.658Z,0.00
2019-02-21T05:18:27.606Z,0.00
2019-02-21T05:19:27.695Z,0.00
2019-02-21T05:20:27.590Z,0.00
2019-02-21T05:21:27.607Z,0.00
2019-02-21T05:22:27.579Z,0.00
2019-02-21T05:23:27.625Z,0.00
2019-02-21T05:24:27.546Z,0.00
2019-02-21T05:25:27.633Z,0.00
2019-02-21T05:26:27.527Z,0.00
2019-02-21T05:27:27.611Z,0.00
2019-02-21T05:28:27.497Z,0.00
2019-02-21T05:29:27.559Z,0.00
2019-02-21T05:30:27.483Z,0.00
2019-02-21T05:31:27.572Z,0.00
2019-02-21T05:32:27.485Z,0.00
2019-02-21T05:33:27.487Z,0.00
2019-02-21T05:34:27.449Z,0.00
2019-02-21T05:35:27.500Z,0.00
2019-02-21T05:36:27.423Z,0.00
2019-02-21T05:37:27.485Z,0.00
2019-02-21T05:38:27.409Z,0.00
2019-02-21T05:39:30.222Z,0.00
2019-02-21T05:40:28.539Z,0.00
2019-02-21T05:41:27.362Z,0.00
2019-02-21T05:42:29.871Z,0.00
2019-02-21T05:43:27.450Z,0.00
2019-02-21T05:44:27.326Z,0.00
2019-02-21T05:45:27.362Z,0.00
2019-02-21T05:46:27.314Z,0.00
2019-02-21T05:47:27.405Z,0.00
2019-02-21T05:48:27.415Z,0.00
2019-02-21T05:49:27.285Z,0.00
2019-02-21T05:50:27.260Z,0.00
2019-02-21T05:51:27.298Z,0.00
2019-02-21T05:52:27.261Z,0.00
2019-02-21T05:53:27.233Z,0.00
2019-02-21T05:54:27.261Z,0.00
2019-02-21T05:55:27.225Z,0.00
2019-02-21T05:56:27.199Z,0.00
2019-02-21T05:57:27.271Z,0.00
2019-02-21T05:58:27.177Z,0.00
2019-02-21T05:59:27.253Z,0.00
2019-02-21T06:00:27.155Z,0.00
2019-02-21T06:01:27.164Z,0.00
2019-02-21T06:02:27.151Z,0.00
2019-02-21T06:03:27.183Z,4.00
2019-02-21T06:04:27.111Z,4.00
2019-02-21T06:05:27.192Z,4.00
2019-02-21T06:06:27.114Z,0.00
2019-02-21T06:07:27.132Z,4.00
2019-02-21T06:08:27.070Z,4.00
2019-02-21T06:09:27.121Z,4.00
2019-02-21T06:10:27.050Z,8.00
2019-02-21T06:11:27.128Z,8.00
2019-02-21T06:12:33.673Z,8.00
2019-02-21T06:13:28.074Z,12.00
2019-02-21T06:14:27.007Z,16.00
2019-02-21T06:15:27.115Z,20.00
2019-02-21T06:16:26.985Z,24.00
2019-02-21T06:17:27.099Z,24.00
2019-02-21T06:18:29.017Z,32.00
2019-02-21T06:19:26.981Z,32.00
2019-02-21T06:20:26.937Z,40.00
2019-02-21T06:21:26.993Z,48.00
2019-02-21T06:22:26.982Z,52.00
2019-02-21T06:23:27.008Z,64.00
2019-02-21T06:24:26.903Z,76.00
2019-02-21T06:25:29.988Z,88.00
2019-02-21T06:26:26.874Z,96.00
2019-02-21T06:27:26.961Z,108.00
2019-02-21T06:28:26.852Z,124.00
2019-02-21T06:29:26.956Z,132.00
2019-02-21T06:30:26.836Z,144.00
2019-02-21T06:31:26.861Z,160.00
2019-02-21T06:32:26.809Z,176.00
2019-02-21T06:33:28.381Z,204.00
2019-02-21T06:34:26.787Z,228.00
2019-02-21T06:35:26.888Z,248.00
2019-02-21T06:36:26.779Z,252.00
2019-02-21T06:37:26.797Z,256.00
2019-02-21T06:38:26.759Z,256.00
2019-02-21T06:39:26.825Z,260.00
2019-02-21T06:40:26.725Z,264.00
2019-02-21T06:41:26.827Z,272.00
2019-02-21T06:42:26.701Z,296.00
2019-02-21T06:43:26.766Z,328.00
2019-02-21T06:44:26.691Z,360.00
2019-02-21T06:45:27.773Z,392.00
2019-02-21T06:46:26.667Z,416.00
2019-02-21T06:47:26.665Z,436.00
2019-02-21T06:48:26.673Z,460.00
2019-02-21T06:49:32.548Z,484.00
2019-02-21T06:50:27.612Z,508.00
2019-02-21T06:51:27.723Z,516.00
2019-02-21T06:52:26.604Z,512.00
2019-02-21T06:53:26.644Z,540.00
2019-02-21T06:54:26.571Z,576.00
2019-02-21T06:55:26.621Z,612.00
2019-02-21T06:56:26.549Z,644.00
2019-02-21T06:57:26.627Z,680.00
2019-02-21T06:58:26.544Z,732.00
2019-02-21T06:59:26.550Z,804.00
2019-02-21T07:00:26.507Z,856.00
2019-02-21T07:01:29.432Z,868.00
2019-02-21T07:02:28.144Z,860.00
2019-02-21T07:03:28.977Z,876.00
2019-02-21T07:04:26.466Z,944.00
2019-02-21T07:05:26.476Z,976.00
2019-02-21T07:06:31.803Z,988.00
2019-02-21T07:07:27.514Z,984.00
2019-02-21T07:08:26.433Z,1000.00
2019-02-21T07:09:26.503Z,1004.00
2019-02-21T07:10:26.401Z,1076.00
2019-02-21T07:11:26.423Z,1204.00
2019-02-21T07:12:26.380Z,1312.00
2019-02-21T07:13:27.112Z,1256.00
2019-02-21T07:14:26.355Z,1212.00
2019-02-21T07:15:26.465Z,1216.00
2019-02-21T07:16:26.337Z,1224.00
2019-02-21T07:17:27.489Z,1188.00
2019-02-21T07:18:28.758Z,1164.00
2019-02-21T07:19:26.397Z,1172.00
2019-02-21T07:20:26.293Z,1148.00
2019-02-21T07:21:26.385Z,1248.00
2019-02-21T07:22:26.273Z,1388.00
2019-02-21T07:23:26.296Z,1500.00
2019-02-21T07:24:26.260Z,1624.00
2019-02-21T07:25:26.308Z,1720.00
2019-02-21T07:26:26.226Z,1868.00
2019-02-21T07:27:26.361Z,2164.00
2019-02-21T07:28:27.849Z,2404.00
2019-02-21T07:29:26.267Z,2576.00
2019-02-21T07:30:26.183Z,2548.00
2019-02-21T07:31:29.084Z,2688.00
2019-02-21T07:32:26.163Z,3096.00
2019-02-21T07:33:28.710Z,3144.00
2019-02-21T07:34:26.153Z,3300.00
2019-02-21T07:35:32.634Z,3492.00
2019-02-21T07:36:26.114Z,3668.00
2019-02-21T07:37:28.130Z,3676.00
2019-02-21T07:38:26.096Z,3612.00
2019-02-21T07:39:35.689Z,3572.00
2019-02-21T07:40:27.068Z,3496.00
2019-02-21T07:41:26.111Z,3324.00
2019-02-21T07:42:26.052Z,3552.00
2019-02-21T07:43:26.131Z,3812.00
2019-02-21T07:44:26.049Z,3948.00
2019-02-21T07:45:26.034Z,4244.00
2019-02-21T07:46:26.005Z,4416.00
2019-02-21T07:47:26.047Z,4580.00
2019-02-21T07:48:25.997Z,4240.00
2019-02-21T07:49:26.090Z,4096.00
2019-02-21T07:50:25.961Z,4244.00
2019-02-21T07:51:26.052Z,4508.00
2019-02-21T07:52:26.236Z,4508.00
2019-02-21T07:53:25.991Z,4436.00
2019-02-21T07:54:25.945Z,4360.00
2019-02-21T07:55:26.001Z,4532.00
2019-02-21T07:56:25.897Z,4612.00
2019-02-21T07:57:25.913Z,4204.00
2019-02-21T07:58:25.875Z,3716.00
2019-02-21T07:59:25.955Z,3512.00
2019-02-21T08:00:25.856Z,3464.00
2019-02-21T08:01:25.941Z,3596.00
2019-02-21T08:02:25.840Z,3676.00
2019-02-21T08:03:31.933Z,3656.00
2019-02-21T08:04:26.825Z,3556.00
2019-02-21T08:05:25.864Z,3580.00
2019-02-21T08:06:25.790Z,3732.00
2019-02-21T08:07:26.437Z,4080.00
2019-02-21T08:08:25.777Z,4888.00
2019-02-21T08:09:27.762Z,4924.00
2019-02-21T08:10:33.064Z,5300.00
2019-02-21T08:11:26.733Z,5848.00
2019-02-21T08:12:25.815Z,6300.00
2019-02-21T08:13:25.718Z,6740.00
2019-02-21T08:14:25.748Z,6796.00
2019-02-21T08:15:27.739Z,6400.00
2019-02-21T08:16:25.735Z,6124.00
2019-02-21T08:17:27.838Z,6188.00
2019-02-21T08:18:26.774Z,6484.00
2019-02-21T08:19:25.680Z,7144.00
2019-02-21T08:20:33.566Z,7880.00
2019-02-21T08:21:26.664Z,8380.00
2019-02-21T08:22:32.143Z,8668.00
2019-02-21T08:23:25.610Z,9888.00
2019-02-21T08:24:27.633Z,9536.00
2019-02-21T08:25:25.608Z,9888.00
2019-02-21T08:26:25.762Z,17632.00
2019-02-21T08:27:25.563Z,17888.00
2019-02-21T08:28:25.613Z,17344.00
2019-02-21T08:29:25.556Z,16832.00
2019-02-21T08:30:25.654Z,14656.00
2019-02-21T08:31:25.522Z,14752.00
2019-02-21T08:32:25.537Z,14560.00
2019-02-21T08:33:25.499Z,10252.00
2019-02-21T08:34:25.552Z,9540.00
2019-02-21T08:35:25.491Z,9356.00
2019-02-21T08:36:25.566Z,9088.00
2019-02-21T08:37:25.457Z,8784.00
2019-02-21T08:38:25.476Z,8584.00
2019-02-21T08:39:25.439Z,8384.00
2019-02-21T08:40:25.516Z,9520.00
2019-02-21T08:41:25.883Z,11840.00
2019-02-21T08:42:25.504Z,9088.00
2019-02-21T08:43:25.389Z,8412.00
2019-02-21T08:44:25.481Z,8844.00
2019-02-21T08:45:25.379Z,9008.00
2019-02-21T08:46:25.428Z,9684.00
2019-02-21T08:47:25.347Z,11268.00
2019-02-21T08:48:25.455Z,12724.00
2019-02-21T08:49:25.334Z,12860.00
2019-02-21T08:50:25.384Z,12860.00
2019-02-21T08:51:25.300Z,12052.00
2019-02-21T08:52:25.367Z,11464.00
2019-02-21T08:53:28.029Z,10104.00
2019-02-21T08:54:25.382Z,9396.00
2019-02-21T08:55:25.271Z,8988.00
2019-02-21T08:56:25.294Z,9032.00
2019-02-21T08:57:25.235Z,8308.00
2019-02-21T08:58:25.308Z,6880.00
2019-02-21T08:59:25.217Z,5772.00
2019-02-21T09:00:25.249Z,5072.00
2019-02-21T09:01:25.206Z,5068.00
2019-02-21T09:02:25.237Z,5480.00
2019-02-21T09:03:25.277Z,5708.00
2019-02-21T09:04:27.778Z,5624.00
2019-02-21T09:05:25.163Z,5156.00
2019-02-21T09:06:25.158Z,4724.00
2019-02-21T09:07:25.129Z,4704.00
2019-02-21T09:08:33.067Z,4748.00
2019-02-21T09:09:26.101Z,4820.00
2019-02-21T09:10:27.769Z,4712.00
2019-02-21T09:11:25.080Z,4304.00
2019-02-21T09:12:25.097Z,4136.00
2019-02-21T09:13:25.060Z,4208.00
2019-02-21T09:14:25.111Z,4136.00
2019-02-21T09:15:25.038Z,3880.00
2019-02-21T09:16:25.151Z,3492.00
2019-02-21T09:17:25.025Z,3176.00
2019-02-21T09:18:25.034Z,2916.00
2019-02-21T09:19:25.008Z,2948.00
2019-02-21T09:20:25.051Z,3172.00
2019-02-21T09:21:24.992Z,3228.00
2019-02-21T09:22:25.100Z,2924.00
2019-02-21T09:23:24.981Z,2636.00
2019-02-21T09:24:37.786Z,2440.00
2019-02-21T09:25:25.931Z,2400.00
2019-02-21T09:26:25.083Z,2512.00
2019-02-21T09:27:24.909Z,2868.00
2019-02-21T09:28:24.999Z,3364.00
2019-02-21T09:29:24.913Z,3488.00
2019-02-21T09:30:24.914Z,3320.00
2019-02-21T09:31:24.886Z,2928.00
2019-02-21T09:32:24.928Z,2456.00
2019-02-21T09:33:24.842Z,2044.00
2019-02-21T09:34:24.940Z,1916.00
2019-02-21T09:35:24.827Z,1832.00
2019-02-21T09:36:24.879Z,1752.00
2019-02-21T09:37:24.800Z,1740.00
2019-02-21T09:38:24.884Z,1812.00
2019-02-21T09:39:24.793Z,1972.00
2019-02-21T09:40:24.782Z,2184.00
2019-02-21T09:41:24.781Z,2404.00
2019-02-21T09:42:24.789Z,2612.00
2019-02-21T09:43:24.744Z,2856.00
2019-02-21T09:44:27.442Z,3180.00
2019-02-21T09:45:24.712Z,3352.00
2019-02-21T09:46:24.728Z,3264.00
2019-02-21T09:47:24.703Z,3168.00
2019-02-21T09:48:24.682Z,3432.00
2019-02-21T09:49:24.667Z,4072.00
2019-02-21T09:50:24.662Z,4780.00
2019-02-21T09:51:24.659Z,5668.00
2019-02-21T09:52:24.652Z,6752.00
2019-02-21T09:53:24.626Z,7500.00
2019-02-21T09:54:24.617Z,8732.00
2019-02-21T09:55:24.603Z,10000.00
2019-02-21T09:56:30.458Z,11224.00
2019-02-21T09:57:25.594Z,12376.00
2019-02-21T09:58:24.584Z,11812.00
2019-02-21T09:59:24.608Z,11620.00
2019-02-21T10:00:24.555Z,12608.00
2019-02-21T10:01:24.553Z,18720.00
2019-02-21T10:02:24.533Z,24224.00
2019-02-21T10:03:24.537Z,24576.00
2019-02-21T10:04:31.880Z,76096.00
2019-02-21T10:05:25.495Z,79392.00
2019-02-21T10:06:24.500Z,39168.00
2019-02-21T10:07:24.473Z,95104.00
2019-02-21T10:08:24.467Z,70400.00
2019-02-21T10:09:24.451Z,43680.00
2019-02-21T10:10:24.455Z,50144.00
2019-02-21T10:11:24.459Z,32672.00
2019-02-21T10:12:24.503Z,23008.00
2019-02-21T10:13:24.407Z,21696.00
2019-02-21T10:14:24.398Z,20768.00
2019-02-21T10:15:24.382Z,23200.00
2019-02-21T10:16:24.376Z,26240.00
2019-02-21T10:17:24.383Z,38112.00
2019-02-21T10:18:24.356Z,44480.00
2019-02-21T10:19:24.339Z,28000.00
2019-02-21T10:20:24.369Z,32352.00
2019-02-21T10:21:24.320Z,20480.00
2019-02-21T10:22:26.057Z,19168.00
2019-02-21T10:23:24.455Z,30208.00
2019-02-21T10:24:24.287Z,28896.00
2019-02-21T10:25:24.271Z,24256.00
2019-02-21T10:26:24.271Z,20960.00
2019-02-21T10:27:24.263Z,17984.00
2019-02-21T10:28:24.248Z,16224.00
2019-02-21T10:29:24.235Z,16448.00
2019-02-21T10:30:24.221Z,16352.00
2019-02-21T10:31:24.210Z,18336.00
2019-02-21T10:32:24.218Z,27200.00
2019-02-21T10:33:25.370Z,78624.00
2019-02-21T10:34:24.178Z,64480.00
2019-02-21T10:35:24.161Z,73408.00
2019-02-21T10:36:24.155Z,61024.00
2019-02-21T10:37:24.155Z,85344.00
2019-02-21T10:38:24.149Z,89056.00
2019-02-21T10:39:24.192Z,47168.00
2019-02-21T10:40:24.112Z,38880.00
2019-02-21T10:41:24.095Z,30016.00
2019-02-21T10:42:24.218Z,23520.00
2019-02-21T10:43:24.084Z,16192.00
2019-02-21T10:44:24.070Z,16640.00
2019-02-21T10:45:24.055Z,20704.00
2019-02-21T10:46:24.047Z,24960.00
2019-02-21T10:47:24.043Z,49216.00
2019-02-21T10:48:24.025Z,37824.00
2019-02-21T10:49:24.014Z,33600.00
2019-02-21T10:50:24.006Z,70272.00
2019-02-21T10:51:23.982Z,31904.00
2019-02-21T10:52:24.000Z,71840.00
2019-02-21T10:53:23.962Z,66176.00
2019-02-21T10:54:23.952Z,58400.00
2019-02-21T10:55:23.940Z,37952.00
2019-02-21T10:56:23.934Z,35552.00
2019-02-21T10:57:23.941Z,54688.00
2019-02-21T10:58:23.912Z,59584.00
2019-02-21T10:59:23.899Z,38432.00
2019-02-21T11:00:23.899Z,36960.00
2019-02-21T11:01:23.872Z,45664.00
2019-02-21T11:02:23.884Z,45088.00
2019-02-21T11:03:23.851Z,41856.00
2019-02-21T11:04:23.845Z,36320.00
2019-02-21T11:05:23.828Z,75008.00
2019-02-21T11:06:23.832Z,85600.00
2019-02-21T11:07:23.821Z,88000.00
2019-02-21T11:08:23.806Z,82848.00
2019-02-21T11:09:23.788Z,79712.00
2019-02-21T11:10:23.778Z,49696.00
2019-02-21T11:11:23.762Z,91680.00
2019-02-21T11:12:23.780Z,91904.00
2019-02-21T11:13:23.745Z,82400.00
2019-02-21T11:14:23.734Z,84928.00
2019-02-21T11:15:23.727Z,91840.00
2019-02-21T11:16:23.717Z,91264.00
2019-02-21T11:17:25.782Z,92096.00
2019-02-21T11:18:23.695Z,87904.00
2019-02-21T11:19:23.680Z,82240.00
2019-02-21T11:20:23.670Z,49312.00
2019-02-21T11:21:23.654Z,63456.00
2019-02-21T11:22:23.713Z,41984.00
2019-02-21T11:23:23.638Z,44000.00
2019-02-21T11:24:23.628Z,29760.00
2019-02-21T11:25:23.616Z,25152.00
2019-02-21T11:26:23.603Z,23296.00
2019-02-21T11:27:23.595Z,27712.00
2019-02-21T11:28:23.601Z,24416.00
2019-02-21T11:29:23.570Z,23584.00
2019-02-21T11:30:23.565Z,21664.00
2019-02-21T11:31:23.550Z,18048.00
2019-02-21T11:32:23.541Z,16448.00
2019-02-21T11:33:23.541Z,16064.00
2019-02-21T11:34:23.521Z,15316.00
2019-02-21T11:35:23.505Z,14208.00
2019-02-21T11:36:23.502Z,13800.00
2019-02-21T11:37:23.481Z,12908.00
2019-02-21T11:38:23.490Z,12840.00
2019-02-21T11:39:23.463Z,11176.00
2019-02-21T11:40:23.455Z,10920.00
2019-02-21T11:41:23.442Z,10492.00
2019-02-21T11:42:23.436Z,10508.00
2019-02-21T11:43:23.438Z,11468.00
2019-02-21T11:44:23.411Z,11304.00
2019-02-21T11:45:23.392Z,10180.00
2019-02-21T11:46:23.393Z,10980.00
2019-02-21T11:47:23.375Z,9464.00
2019-02-21T11:48:23.379Z,8652.00
2019-02-21T11:49:23.348Z,8476.00
2019-02-21T11:50:23.349Z,8644.00
2019-02-21T11:51:23.327Z,8616.00
2019-02-21T11:52:23.320Z,8536.00
2019-02-21T11:53:23.326Z,9052.00
2019-02-21T11:54:26.945Z,9772.00
2019-02-21T11:55:23.283Z,9948.00
2019-02-21T11:56:23.275Z,8352.00
2019-02-21T11:57:23.264Z,6836.00
2019-02-21T11:58:23.269Z,6708.00
2019-02-21T11:59:23.242Z,6544.00
2019-02-21T12:00:23.240Z,7108.00
2019-02-21T12:01:23.219Z,6944.00
2019-02-21T12:02:23.211Z,6788.00
2019-02-21T12:03:23.216Z,6380.00
2019-02-21T12:04:24.448Z,6088.00
2019-02-21T12:05:30.353Z,5704.00
2019-02-21T12:06:24.167Z,5060.00
2019-02-21T12:07:23.150Z,4544.00
2019-02-21T12:08:23.159Z,4300.00
2019-02-21T12:09:23.130Z,4332.00
2019-02-21T12:10:23.127Z,4368.00
2019-02-21T12:11:23.111Z,4568.00
2019-02-21T12:12:23.102Z,4540.00
2019-02-21T12:13:23.100Z,4616.00
2019-02-21T12:14:23.079Z,4560.00
2019-02-21T12:15:23.065Z,4448.00
2019-02-21T12:16:23.057Z,4316.00
2019-02-21T12:17:23.048Z,4052.00
2019-02-21T12:18:23.063Z,3792.00
2019-02-21T12:19:23.063Z,3696.00
2019-02-21T12:20:23.013Z,3844.00
2019-02-21T12:21:23.004Z,4336.00
2019-02-21T12:22:23.032Z,5104.00
2019-02-21T12:23:22.992Z,5684.00
2019-02-21T12:24:22.976Z,5756.00
2019-02-21T12:25:22.957Z,5764.00
2019-02-21T12:26:22.952Z,5888.00
2019-02-21T12:27:22.941Z,6104.00
2019-02-21T12:28:22.944Z,6628.00
2019-02-21T12:29:22.912Z,6668.00
2019-02-21T12:30:22.905Z,6436.00
2019-02-21T12:31:22.889Z,6036.00
2019-02-21T12:32:22.886Z,6216.00
2019-02-21T12:33:22.887Z,6880.00
2019-02-21T12:34:22.863Z,8488.00
2019-02-21T12:35:29.623Z,9904.00
2019-02-21T12:36:23.839Z,9392.00
2019-02-21T12:37:22.824Z,8824.00